Time;durP1;ratioP1;P1;durP2;ratioP2;P2;SDS_P1;SDS_P2;PMS_P1;PMS_P2;Temp;Humidity;BMP_temperature;BMP_pressure;BME280_temperature;BME280_humidity;BME280_pressure;Samples;Min_cycle;Max_cycle;Signal;HPM_P1;HPM_P2
2023/05/08 00:03:20;;;;;;;;;;;;;;;13.39;72.64551;102162.3;;;;-69
2023/05/08 00:08:22;;;;;;;;;;;;;;;13.33;72.78906;102167.9;;;;-69
2023/05/08 00:10:25;;;;;;;3.7;2.4;;;;;;;;;;;;;-71
2023/05/08 00:13:20;;;;;;;;;;;;;;;13.25;73.35742;102162.5;;;;-70
2023/05/08 00:18:20;;;;;;;;;;;;;;;13.2;73.22754;102165.1;;;;-69
2023/05/08 00:23:20;;;;;;;;;;;;;;;13.13;73.1709;102160.8;;;;-70
2023/05/08 00:28:20;;;;;;;;;;;;;;;13.07;73.18359;102158.1;;;;-70
2023/05/08 00:33:20;;;;;;;;;;;;;;;13.04;73.14453;102160;;;;-70
2023/05/08 00:38:20;;;;;;;;;;;;;;;13;72.91504;102162.3;;;;-69
2023/05/08 00:40:29;;;;;;;4.1;2.5;;;;;;;;;;;;;-70
2023/05/08 00:43:26;;;;;;;;;;;;;;;12.96;72.9873;102166.5;;;;-71
2023/05/08 00:48:20;;;;;;;;;;;;;;;12.92;73.25879;102167.7;;;;-70
2023/05/08 00:53:20;;;;;;;;;;;;;;;12.84;72.92285;102162.1;;;;-69
2023/05/08 00:58:20;;;;;;;;;;;;;;;12.79;72.88184;102159;;;;-70
2023/05/08 01:03:20;;;;;;;;;;;;;;;12.75;73.12891;102159;;;;-71
2023/05/08 01:08:20;;;;;;;;;;;;;;;12.71;73.18848;102164.9;;;;-69
2023/05/08 01:10:28;;;;;;;4.4;2.4;;;;;;;;;;;;;-70
2023/05/08 01:13:26;;;;;;;;;;;;;;;12.68;73.26367;102169.7;;;;-70
2023/05/08 01:18:24;;;;;;;;;;;;;;;12.62;72.94043;102165.7;;;;-68
2023/05/08 01:23:31;;;;;;;;;;;;;;;12.59;73.09082;102160.6;;;;-69
2023/05/08 01:28:35;;;;;;;;;;;;;;;12.55;73.35352;102162.3;;;;-69
2023/05/08 01:33:23;;;;;;;;;;;;;;;12.47;73.64063;102160.7;;;;-70
2023/05/08 01:38:22;;;;;;;;;;;;;;;12.44;73.63477;102159.3;;;;-70
2023/05/08 01:40:37;;;;;;;4.3;2.4;;;;;;;;;;;;;-69
2023/05/08 01:43:25;;;;;;;;;;;;;;;12.37;73.79102;102161.3;;;;-70
2023/05/08 01:48:22;;;;;;;;;;;;;;;12.33;73.24902;102160.3;;;;-70
2023/05/08 01:53:24;;;;;;;;;;;;;;;12.25;73.84863;102151;;;;-70
2023/05/08 01:58:21;;;;;;;;;;;;;;;12.21;73.54102;102149.3;;;;-70
2023/05/08 02:03:21;;;;;;;;;;;;;;;12.24;73.58984;102160;;;;-70
2023/05/08 02:08:24;;;;;;;;;;;;;;;12.18;73.52539;102165.3;;;;-69
2023/05/08 02:10:35;;;;;;;3.3;2;;;;;;;;;;;;;-70
2023/05/08 02:13:22;;;;;;;;;;;;;;;12.18;73.29004;102174.5;;;;-70
2023/05/08 02:18:21;;;;;;;;;;;;;;;12.12;73.45996;102175.3;;;;-70
2023/05/08 02:23:20;;;;;;;;;;;;;;;12.11;73.49023;102180.1;;;;-69
2023/05/08 02:28:21;;;;;;;;;;;;;;;12.07;73.5957;102184;;;;-72
2023/05/08 02:33:21;;;;;;;;;;;;;;;11.99;73.76172;102189.9;;;;-71
2023/05/08 02:38:23;;;;;;;;;;;;;;;11.97;73.65723;102190;;;;-71
2023/05/08 02:40:34;;;;;;;3;2;;;;;;;;;;;;;-70
2023/05/08 02:43:20;;;;;;;;;;;;;;;11.96;73.75586;102175.9;;;;-70
2023/05/08 02:48:26;;;;;;;;;;;;;;;11.93;73.77148;102170.6;;;;-69
2023/05/08 02:53:23;;;;;;;;;;;;;;;11.93;74.02734;102172;;;;-70
2023/05/08 02:58:23;;;;;;;;;;;;;;;11.95;73.9541;102170.7;;;;-70
2023/05/08 03:03:22;;;;;;;;;;;;;;;11.95;74.13086;102166.5;;;;-69
2023/05/08 03:08:22;;;;;;;;;;;;;;;11.94;73.77441;102158.9;;;;-69
2023/05/08 03:10:36;;;;;;;2.8;1.9;;;;;;;;;;;;;-69
2023/05/08 03:13:24;;;;;;;;;;;;;;;11.99;74.03613;102149.8;;;;-68
2023/05/08 03:18:31;;;;;;;;;;;;;;;12;73.99512;102149.9;;;;-70
2023/05/08 03:23:23;;;;;;;;;;;;;;;12.06;73.95996;102146.8;;;;-70
2023/05/08 03:28:24;;;;;;;;;;;;;;;12.06;73.49414;102148.7;;;;-69
2023/05/08 03:33:21;;;;;;;;;;;;;;;12.09;73.95313;102148;;;;-74
2023/05/08 03:38:21;;;;;;;;;;;;;;;12.1;73.97852;102148.7;;;;-75
2023/05/08 03:40:37;;;;;;;2.5;1.7;;;;;;;;;;;;;-75
2023/05/08 03:43:21;;;;;;;;;;;;;;;12.12;73.91504;102155.9;;;;-74
2023/05/08 03:48:21;;;;;;;;;;;;;;;12.1;73.56738;102153.9;;;;-73
2023/05/08 03:53:20;;;;;;;;;;;;;;;12.13;74.19434;102154.5;;;;-74
2023/05/08 03:58:27;;;;;;;;;;;;;;;12.15;74.05469;102160;;;;-75
2023/05/08 04:03:25;;;;;;;;;;;;;;;12.15;74.1543;102161;;;;-75
2023/05/08 04:08:23;;;;;;;;;;;;;;;12.18;74.21387;102164.5;;;;-73
2023/05/08 04:10:47;;;;;;;2.5;1.8;;;;;;;;;;;;;-75
2023/05/08 04:13:31;;;;;;;;;;;;;;;12.2;73.98438;102165.2;;;;-74
2023/05/08 04:18:21;;;;;;;;;;;;;;;12.2;73.83984;102162.2;;;;-74
2023/05/08 04:23:21;;;;;;;;;;;;;;;12.25;74.22559;102168.6;;;;-70
2023/05/08 04:28:20;;;;;;;;;;;;;;;12.28;73.92969;102171.8;;;;-69
2023/05/08 04:33:20;;;;;;;;;;;;;;;12.29;74.2002;102176.7;;;;-69
2023/05/08 04:38:22;;;;;;;;;;;;;;;12.32;73.99512;102174.6;;;;-70
2023/05/08 04:40:38;;;;;;;2.8;1.9;;;;;;;;;;;;;-70
2023/05/08 04:43:20;;;;;;;;;;;;;;;12.36;74.08984;102177.5;;;;-71
2023/05/08 04:48:20;;;;;;;;;;;;;;;12.38;73.91309;102180.8;;;;-69
2023/05/08 04:53:21;;;;;;;;;;;;;;;12.43;73.83398;102184.9;;;;-71
2023/05/08 04:58:20;;;;;;;;;;;;;;;12.47;73.92969;102190.1;;;;-69
2023/05/08 05:03:20;;;;;;;;;;;;;;;12.51;74.11426;102194.3;;;;-70
2023/05/08 05:08:27;;;;;;;;;;;;;;;12.6;73.67285;102202.1;;;;-71
2023/05/08 05:10:40;;;;;;;2.9;2;;;;;;;;;;;;;-73
2023/05/08 05:13:20;;;;;;;;;;;;;;;12.64;73.58105;102205.2;;;;-69
2023/05/08 05:18:20;;;;;;;;;;;;;;;12.71;73.72363;102199.8;;;;-69
2023/05/08 05:23:21;;;;;;;;;;;;;;;12.76;73.5332;102199.8;;;;-71
2023/05/08 05:28:20;;;;;;;;;;;;;;;12.83;73.42188;102208.7;;;;-70
2023/05/08 05:33:24;;;;;;;;;;;;;;;12.89;73.63477;102208.6;;;;-70
2023/05/08 05:38:21;;;;;;;;;;;;;;;12.98;73.36816;102208.6;;;;-70
2023/05/08 05:40:46;;;;;;;3.4;2.1;;;;;;;;;;;;;-70
2023/05/08 05:43:20;;;;;;;;;;;;;;;13.08;73.39746;102208.5;;;;-69
2023/05/08 05:48:22;;;;;;;;;;;;;;;13.21;73.25098;102215.6;;;;-69
2023/05/08 05:53:20;;;;;;;;;;;;;;;13.37;72.75391;102215.1;;;;-70
2023/05/08 05:58:20;;;;;;;;;;;;;;;13.6;74.27637;102214.4;;;;-70
2023/05/08 06:03:20;;;;;;;;;;;;;;;13.78;73.28906;102218.8;;;;-70
2023/05/08 06:08:20;;;;;;;;;;;;;;;13.91;73.70508;102226;;;;-70
2023/05/08 06:10:43;;;;;;;5.2;3.3;;;;;;;;;;;;;-71
2023/05/08 06:13:22;;;;;;;;;;;;;;;14.05;74.77637;102223.9;;;;-72
2023/05/08 06:18:20;;;;;;;;;;;;;;;14.15;74.45996;102221.5;;;;-69
2023/05/08 06:23:20;;;;;;;;;;;;;;;14.27;75.70703;102227.1;;;;-68
2023/05/08 06:28:26;;;;;;;;;;;;;;;14.38;77.22363;102223.7;;;;-70
2023/05/08 06:33:20;;;;;;;;;;;;;;;14.49;77.61328;102227.3;;;;-70
2023/05/08 06:38:22;;;;;;;;;;;;;;;14.62;78.46289;102227.5;;;;-70
2023/05/08 06:40:49;;;;;;;8.6;6;;;;;;;;;;;;;-71
2023/05/08 06:43:21;;;;;;;;;;;;;;;14.75;79.23438;102226.3;;;;-70
2023/05/08 06:48:20;;;;;;;;;;;;;;;14.89;79.12598;102225;;;;-71
2023/05/08 06:53:20;;;;;;;;;;;;;;;15;80.3291;102217.4;;;;-69
2023/05/08 06:58:20;;;;;;;;;;;;;;;15.13;79.40137;102222.7;;;;-71
2023/05/08 07:03:23;;;;;;;;;;;;;;;15.26;78.6543;102215.8;;;;-70
2023/05/08 07:08:20;;;;;;;;;;;;;;;15.38;79.04492;102218.9;;;;-71
2023/05/08 07:10:47;;;;;;;10.3;7.2;;;;;;;;;;;;;-70
2023/05/08 07:13:20;;;;;;;;;;;;;;;15.5;79.77246;102211.8;;;;-70
2023/05/08 07:18:20;;;;;;;;;;;;;;;15.57;77.44336;102207.1;;;;-69
2023/05/08 07:23:27;;;;;;;;;;;;;;;15.62;79.49121;102212.2;;;;-70
2023/05/08 07:28:20;;;;;;;;;;;;;;;15.69;78.65137;102213.5;;;;-71
2023/05/08 07:33:20;;;;;;;;;;;;;;;15.72;78.71387;102211.9;;;;-71
2023/05/08 07:38:20;;;;;;;;;;;;;;;15.76;79.75098;102217.8;;;;-70
2023/05/08 07:40:50;;;;;;;17.5;11.3;;;;;;;;;;;;;-70
2023/05/08 07:43:23;;;;;;;;;;;;;;;15.83;80.72754;102215.4;;;;-69
2023/05/08 07:48:20;;;;;;;;;;;;;;;15.89;78.58691;102212;;;;-71
2023/05/08 07:53:20;;;;;;;;;;;;;;;15.96;79.74219;102216.1;;;;-70
2023/05/08 07:58:20;;;;;;;;;;;;;;;16.04;77.41406;102213.3;;;;-70
2023/05/08 08:03:20;;;;;;;;;;;;;;;16.1;80.03613;102209.8;;;;-70
2023/05/08 08:08:22;;;;;;;;;;;;;;;16.2;79.05664;102213.4;;;;-70
2023/05/08 08:10:54;;;;;;;24.1;14.2;;;;;;;;;;;;;-69
2023/05/08 08:13:26;;;;;;;;;;;;;;;16.27;78.07129;102208.5;;;;-70
2023/05/08 08:18:24;;;;;;;;;;;;;;;16.35;76.91992;102210.5;;;;-71
2023/05/08 08:23:25;;;;;;;;;;;;;;;16.48;77.04297;102213.3;;;;-70
2023/05/08 08:28:21;;;;;;;;;;;;;;;16.67;77.27539;102216.5;;;;-70
2023/05/08 08:33:20;;;;;;;;;;;;;;;16.84;76.48535;102208.9;;;;-70
2023/05/08 08:38:23;;;;;;;;;;;;;;;17.05;75.74805;102213.4;;;;-71
2023/05/08 08:40:53;;;;;;;23.9;14.1;;;;;;;;;;;;;-69
2023/05/08 08:43:20;;;;;;;;;;;;;;;17.33;75.6377;102218.6;;;;-70
2023/05/08 08:48:21;;;;;;;;;;;;;;;17.58;75.24023;102221;;;;-71
2023/05/08 08:53:24;;;;;;;;;;;;;;;17.71;75.71191;102218.1;;;;-71
2023/05/08 08:58:24;;;;;;;;;;;;;;;17.83;75.64355;102211.2;;;;-70
2023/05/08 09:03:22;;;;;;;;;;;;;;;18;75.83105;102209.8;;;;-70
2023/05/08 09:08:23;;;;;;;;;;;;;;;18.12;75.26367;102205.6;;;;-69
2023/05/08 09:10:59;;;;;;;40.4;22.2;;;;;;;;;;;;;-70
2023/05/08 09:13:29;;;;;;;;;;;;;;;18.24;74.20117;102206.3;;;;-69
2023/05/08 09:18:25;;;;;;;;;;;;;;;18.27;74.08301;102209.1;;;;-71
2023/05/08 09:23:25;;;;;;;;;;;;;;;18.31;75.34082;102212.3;;;;-72
2023/05/08 09:28:30;;;;;;;;;;;;;;;18.39;75.05957;102218.6;;;;-70
2023/05/08 09:33:21;;;;;;;;;;;;;;;18.55;74.72754;102215.7;;;;-74
2023/05/08 09:38:40;;;;;;;;;;;;;;;18.65;74.60938;102216;;;;-74
2023/05/08 09:41:08;;;;;;;49;25.3;;;;;;;;;;;;;-74
2023/05/08 09:43:31;;;;;;;;;;;;;;;18.73;75.1748;102211;;;;-73
2023/05/08 09:48:32;;;;;;;;;;;;;;;18.83;74.32324;102211.9;;;;-73
2023/05/08 09:53:33;;;;;;;;;;;;;;;19.01;73.3916;102212.3;;;;-73
2023/05/08 09:58:22;;;;;;;;;;;;;;;19.2;73.85254;102211.7;;;;-75
2023/05/08 10:03:28;;;;;;;;;;;;;;;19.39;73.26074;102217;;;;-73
2023/05/08 10:08:28;;;;;;;;;;;;;;;19.57;72.97363;102210.8;;;;-71
2023/05/08 10:11:12;;;;;;;50.3;26;;;;;;;;;;;;;-70
2023/05/08 10:13:22;;;;;;;;;;;;;;;19.85;72.41016;102208.7;;;;-69
2023/05/08 10:18:23;;;;;;;;;;;;;;;20.15;71.4707;102204.9;;;;-70
2023/05/08 10:23:23;;;;;;;;;;;;;;;20.32;70.87402;102203.5;;;;-70
2023/05/08 10:28:28;;;;;;;;;;;;;;;20.46;70.47559;102206.5;;;;-72
2023/05/08 10:33:23;;;;;;;;;;;;;;;20.67;70.47656;102207.4;;;;-70
2023/05/08 10:38:26;;;;;;;;;;;;;;;21.17;69.09863;102211.2;;;;-72
2023/05/08 10:41:06;;;;;;;50.8;25.2;;;;;;;;;;;;;-70
2023/05/08 10:43:20;;;;;;;;;;;;;;;21.41;68.46484;102206.2;;;;-70
2023/05/08 10:48:25;;;;;;;;;;;;;;;21.64;67.85059;102206.1;;;;-70
2023/05/08 10:53:25;;;;;;;;;;;;;;;21.89;66.9541;102207.1;;;;-70
2023/05/08 10:58:30;;;;;;;;;;;;;;;21.91;66.99121;102203.6;;;;-69
2023/05/08 11:03:23;;;;;;;;;;;;;;;21.85;67.00488;102204.5;;;;-70
2023/05/08 11:08:23;;;;;;;;;;;;;;;21.7;67.19824;102204.7;;;;-69
2023/05/08 11:11:08;;;;;;;50.5;26.1;;;;;;;;;;;;;-69
2023/05/08 11:13:20;;;;;;;;;;;;;;;21.51;67.28418;102206.8;;;;-72
2023/05/08 11:18:20;;;;;;;;;;;;;;;21.43;67.6377;102196;;;;-69
2023/05/08 11:23:30;;;;;;;;;;;;;;;21.41;67.70215;102194.9;;;;-69
2023/05/08 11:28:19;;;;;;;;;;;;;;;21.45;67.96973;102187.7;;;;-70
2023/05/08 11:33:23;;;;;;;;;;;;;;;21.52;67.57031;102182.5;;;;-69
2023/05/08 11:38:24;;;;;;;;;;;;;;;21.59;67.63672;102181.8;;;;-69
2023/05/08 11:41:11;;;;;;;39.3;23.1;;;;;;;;;;;;;-70
2023/05/08 11:43:27;;;;;;;;;;;;;;;21.71;66.46973;102179.8;;;;-70
2023/05/08 11:48:22;;;;;;;;;;;;;;;21.91;66.68164;102177.1;;;;-70
2023/05/08 11:53:20;;;;;;;;;;;;;;;22.22;66.96875;102177;;;;-69
2023/05/08 11:58:20;;;;;;;;;;;;;;;22.52;66.16797;102169.6;;;;-69
2023/05/08 12:03:20;;;;;;;;;;;;;;;22.77;64.90234;102163.6;;;;-69
2023/05/08 12:08:20;;;;;;;;;;;;;;;22.92;65.50684;102162.6;;;;-69
2023/05/08 12:11:14;;;;;;;28;16.8;;;;;;;;;;;;;-70
2023/05/08 12:13:23;;;;;;;;;;;;;;;23.12;66.08496;102158.5;;;;-69
2023/05/08 12:18:20;;;;;;;;;;;;;;;23.33;62.83301;102149.1;;;;-71
2023/05/08 12:23:20;;;;;;;;;;;;;;;23.49;64.08008;102143.7;;;;-69
2023/05/08 12:28:27;;;;;;;;;;;;;;;23.73;65.15625;102138.9;;;;-71
2023/05/08 12:33:20;;;;;;;;;;;;;;;23.77;63.45508;102139.7;;;;-70
2023/05/08 12:38:20;;;;;;;;;;;;;;;23.84;63.78613;102136.7;;;;-70
2023/05/08 12:43:19;;;;;;;;;;;;;;;23.89;62.93359;102132.8;;;;-70
2023/05/08 12:48:20;;;;;;;;;;;;;;;23.99;62.66016;102130.8;;;;-71
2023/05/08 12:53:21;;;;;;;;;;;;;;;24.15;63.48535;102129.1;;;;-70
2023/05/08 12:58:21;;;;;;;;;;;;;;;24.22;62.53223;102127.8;;;;-69
2023/05/08 13:03:28;;;;;;;;;;;;;;;24.22;61.78516;102128.4;;;;-70
2023/05/08 13:08:21;;;;;;;;;;;;;;;24.25;61.66406;102124.2;;;;-70
2023/05/08 13:11:31;;;;;;;25;14.4;;;;;;;;;;;;;-69
2023/05/08 13:13:21;;;;;;;;;;;;;;;24.3;61.48633;102124.2;;;;-69
2023/05/08 13:18:20;;;;;;;;;;;;;;;24.27;61.39063;102126.9;;;;-69
2023/05/08 13:23:20;;;;;;;;;;;;;;;24.06;60.85742;102128.4;;;;-70
2023/05/08 13:28:20;;;;;;;;;;;;;;;23.83;61.39844;102119;;;;-70
2023/05/08 13:33:20;;;;;;;;;;;;;;;23.73;61.90234;102122.3;;;;-70
2023/05/08 13:38:20;;;;;;;;;;;;;;;23.65;62.4873;102116.1;;;;-70
2023/05/08 13:41:27;;;;;;;21.3;12.7;;;;;;;;;;;;;-69
2023/05/08 13:43:20;;;;;;;;;;;;;;;23.7;62.79297;102112.6;;;;-71
2023/05/08 13:48:31;;;;;;;;;;;;;;;23.79;63.0918;102111.6;;;;-70
2023/05/08 13:53:21;;;;;;;;;;;;;;;23.8;63;102109;;;;-72
2023/05/08 13:58:20;;;;;;;;;;;;;;;23.8;62.93164;102105.7;;;;-69
2023/05/08 14:03:20;;;;;;;;;;;;;;;23.75;62.76465;102115.2;;;;-70
2023/05/08 14:08:20;;;;;;;;;;;;;;;21.94;64.00684;102120.9;;;;-72
2023/05/08 14:11:30;;;;;;;36.5;17.2;;;;;;;;;;;;;-75
2023/05/08 14:13:21;;;;;;;;;;;;;;;20.92;68.23047;102122.9;;;;-74
2023/05/08 14:18:28;;;;;;;;;;;;;;;21.98;65.80371;102120.1;;;;-73
2023/05/08 14:23:20;;;;;;;;;;;;;;;22.52;63.47266;102111.3;;;;-69
2023/05/08 14:28:23;;;;;;;;;;;;;;;22.61;63.54297;102111.7;;;;-69
2023/05/08 14:33:22;;;;;;;;;;;;;;;22.57;64.05078;102119.3;;;;-69
2023/05/08 14:38:21;;;;;;;;;;;;;;;22.46;64.30957;102112.8;;;;-70
2023/05/08 14:41:35;;;;;;;27.3;14.9;;;;;;;;;;;;;-69
2023/05/08 14:43:20;;;;;;;;;;;;;;;22.38;64.37793;102110.3;;;;-70
2023/05/08 14:48:19;;;;;;;;;;;;;;;22.35;64.55664;102115;;;;-69
2023/05/08 14:53:28;;;;;;;;;;;;;;;22.42;65.3418;102120.6;;;;-72
2023/05/08 14:58:19;;;;;;;;;;;;;;;22.43;65.50586;102116;;;;-69
2023/05/08 15:03:21;;;;;;;;;;;;;;;22.46;65.59961;102120.3;;;;-69
2023/05/08 15:08:20;;;;;;;;;;;;;;;22.36;66.01953;102110.7;;;;-69
2023/05/08 15:11:36;;;;;;;33.7;16.8;;;;;;;;;;;;;-69
2023/05/08 15:13:20;;;;;;;;;;;;;;;22.26;66.30273;102106.5;;;;-70
2023/05/08 15:18:20;;;;;;;;;;;;;;;22.22;66.41016;102106.6;;;;-70
2023/05/08 15:23:20;;;;;;;;;;;;;;;22.13;65.98535;102111.5;;;;-69
2023/05/08 15:28:21;;;;;;;;;;;;;;;21.97;66.57715;102115.6;;;;-70
2023/05/08 15:33:21;;;;;;;;;;;;;;;21.84;66.75195;102108.3;;;;-70
2023/05/08 15:38:19;;;;;;;;;;;;;;;21.7;67.18652;102108.5;;;;-69
2023/05/08 15:41:40;;;;;;;27.6;15.1;;;;;;;;;;;;;-70
2023/05/08 15:43:19;;;;;;;;;;;;;;;21.64;67.58789;102113.7;;;;-69
2023/05/08 15:48:19;;;;;;;;;;;;;;;21.59;66.625;102115.3;;;;-70
2023/05/08 15:53:19;;;;;;;;;;;;;;;21.5;66.96289;102120.6;;;;-69
2023/05/08 15:58:20;;;;;;;;;;;;;;;21.42;67.19141;102124;;;;-70
2023/05/08 16:03:19;;;;;;;;;;;;;;;21.32;66.86816;102128.8;;;;-69
2023/05/08 16:08:20;;;;;;;;;;;;;;;21.25;67.14258;102123.2;;;;-69
2023/05/08 16:11:43;;;;;;;22.2;12.6;;;;;;;;;;;;;-71
2023/05/08 16:13:23;;;;;;;;;;;;;;;21.23;67.18359;102120.8;;;;-71
2023/05/08 16:18:19;;;;;;;;;;;;;;;21.2;67.00977;102113.7;;;;-71
2023/05/08 16:23:21;;;;;;;;;;;;;;;21.16;66.83301;102102.6;;;;-70
2023/05/08 16:28:20;;;;;;;;;;;;;;;21.14;67.19434;102092;;;;-68
2023/05/08 16:33:22;;;;;;;;;;;;;;;21.16;67.28809;102088.9;;;;-69
2023/05/08 16:38:19;;;;;;;;;;;;;;;21.13;67.05664;102084.4;;;;-70
2023/05/08 16:41:46;;;;;;;18.7;10.3;;;;;;;;;;;;;-71
2023/05/08 16:43:22;;;;;;;;;;;;;;;21.07;67.24121;102078.8;;;;-70
2023/05/08 16:48:19;;;;;;;;;;;;;;;21;67.10547;102078.8;;;;-71
2023/05/08 16:53:20;;;;;;;;;;;;;;;20.89;66.91797;102079.8;;;;-69
2023/05/08 16:58:20;;;;;;;;;;;;;;;20.75;67.26172;102081.9;;;;-70
2023/05/08 17:03:20;;;;;;;;;;;;;;;20.6;67.41992;102072.4;;;;-70
2023/05/08 17:08:19;;;;;;;;;;;;;;;20.42;67.25684;102059.6;;;;-70
2023/05/08 17:11:49;;;;;;;19.1;9.9;;;;;;;;;;;;;-71
2023/05/08 17:13:22;;;;;;;;;;;;;;;20.27;67.38281;102051;;;;-72
2023/05/08 17:18:22;;;;;;;;;;;;;;;20.15;67.35156;102063.2;;;;-70
2023/05/08 17:23:19;;;;;;;;;;;;;;;20.01;67.52539;102061.8;;;;-70
2023/05/08 17:28:19;;;;;;;;;;;;;;;19.91;67.78223;102054;;;;-69
2023/05/08 17:33:20;;;;;;;;;;;;;;;19.84;67.82715;102052.3;;;;-71
2023/05/08 17:38:21;;;;;;;;;;;;;;;19.78;67.83008;102067.1;;;;-71
2023/05/08 17:41:53;;;;;;;15;9.2;;;;;;;;;;;;;-72
2023/05/08 17:43:21;;;;;;;;;;;;;;;19.72;67.77637;102064.8;;;;-73
2023/05/08 17:48:20;;;;;;;;;;;;;;;19.67;67.59766;102064;;;;-73
2023/05/08 17:53:27;;;;;;;;;;;;;;;19.61;67.66797;102065.1;;;;-72
2023/05/08 17:58:20;;;;;;;;;;;;;;;19.54;67.70313;102063.8;;;;-72
2023/05/08 18:03:19;;;;;;;;;;;;;;;19.47;67.56738;102057;;;;-72
2023/05/08 18:08:19;;;;;;;;;;;;;;;19.37;67.18945;102050.8;;;;-72
2023/05/08 18:12:00;;;;;;;16.5;9.3;;;;;;;;;;;;;-74
2023/05/08 18:13:19;;;;;;;;;;;;;;;19.25;67.625;102040.2;;;;-72
2023/05/08 18:18:19;;;;;;;;;;;;;;;19.14;67.89063;102036.5;;;;-74
2023/05/08 18:23:21;;;;;;;;;;;;;;;19.03;67.87402;102032.6;;;;-72
2023/05/08 18:28:21;;;;;;;;;;;;;;;18.91;67.6748;102038.4;;;;-72
2023/05/08 18:33:19;;;;;;;;;;;;;;;18.78;67.45117;102034;;;;-73
2023/05/08 18:38:21;;;;;;;;;;;;;;;18.64;67.19336;102011;;;;-73
2023/05/08 18:41:57;;;;;;;18.2;9.7;;;;;;;;;;;;;-72
2023/05/08 18:43:19;;;;;;;;;;;;;;;18.51;67.04883;102020.4;;;;-72
2023/05/08 18:48:19;;;;;;;;;;;;;;;18.36;67.07129;102047.3;;;;-73
2023/05/08 18:53:19;;;;;;;;;;;;;;;18.23;67.91016;102046;;;;-74
2023/05/08 18:58:25;;;;;;;;;;;;;;;18.07;67.86328;102047.1;;;;-73
2023/05/08 19:03:20;;;;;;;;;;;;;;;17.92;67.37695;102039;;;;-73
2023/05/08 19:08:20;;;;;;;;;;;;;;;17.77;67.64844;102052.3;;;;-72
2023/05/08 19:12:00;;;;;;;15.3;9.3;;;;;;;;;;;;;-73
2023/05/08 19:13:23;;;;;;;;;;;;;;;17.64;67.37891;102053;;;;-71
2023/05/08 19:18:19;;;;;;;;;;;;;;;17.5;67.11035;102060.7;;;;-70
2023/05/08 19:23:20;;;;;;;;;;;;;;;17.37;67.37305;102061.3;;;;-72
2023/05/08 19:28:19;;;;;;;;;;;;;;;17.28;67.6748;102058.6;;;;-73
2023/05/08 19:33:20;;;;;;;;;;;;;;;17.15;67.64453;102069.6;;;;-73
2023/05/08 19:38:19;;;;;;;;;;;;;;;17.02;68.20996;102076.5;;;;-73
2023/05/08 19:42:02;;;;;;;15.5;8.9;;;;;;;;;;;;;-72
2023/05/08 19:43:19;;;;;;;;;;;;;;;16.88;67.95313;102082.9;;;;-73
2023/05/08 19:48:19;;;;;;;;;;;;;;;16.76;68.13672;102084.3;;;;-72
2023/05/08 19:53:20;;;;;;;;;;;;;;;16.64;68.46777;102092.8;;;;-73
2023/05/08 19:58:20;;;;;;;;;;;;;;;16.5;68.63574;102094.6;;;;-72
2023/05/08 20:03:19;;;;;;;;;;;;;;;16.37;69.17773;102087.6;;;;-73
2023/05/08 20:08:20;;;;;;;;;;;;;;;16.23;69.33789;102086.5;;;;-72
2023/05/08 20:12:04;;;;;;;16.8;8.4;;;;;;;;;;;;;-73
2023/05/08 20:13:20;;;;;;;;;;;;;;;16.12;69.25293;102086.6;;;;-71
2023/05/08 20:18:20;;;;;;;;;;;;;;;16.03;69.42969;102081.6;;;;-72
2023/05/08 20:23:20;;;;;;;;;;;;;;;15.94;69.52832;102075.2;;;;-72
2023/05/08 20:28:23;;;;;;;;;;;;;;;15.88;69.50684;102071.5;;;;-72
2023/05/08 20:33:19;;;;;;;;;;;;;;;15.79;69.41504;102077.7;;;;-74
2023/05/08 20:38:20;;;;;;;;;;;;;;;15.7;69.50195;102076.3;;;;-72
2023/05/08 20:42:06;;;;;;;12.6;5.8;;;;;;;;;;;;;-72
2023/05/08 20:43:19;;;;;;;;;;;;;;;15.63;69.47949;102078.9;;;;-72
2023/05/08 20:48:22;;;;;;;;;;;;;;;15.59;69.64063;102074.9;;;;-73
2023/05/08 20:53:19;;;;;;;;;;;;;;;15.52;69.63086;102064.3;;;;-72
2023/05/08 20:58:20;;;;;;;;;;;;;;;15.48;69.81445;102064.5;;;;-72
2023/05/08 21:03:19;;;;;;;;;;;;;;;15.42;70.12012;102057.9;;;;-73
2023/05/08 21:08:19;;;;;;;;;;;;;;;15.37;69.65137;102043.1;;;;-69
2023/05/08 21:12:08;;;;;;;7.8;4.1;;;;;;;;;;;;;-70
2023/05/08 21:13:19;;;;;;;;;;;;;;;15.35;69.76074;102037;;;;-70
2023/05/08 21:18:19;;;;;;;;;;;;;;;15.28;69.72754;102030.4;;;;-69
2023/05/08 21:23:19;;;;;;;;;;;;;;;15.24;69.97852;102025.1;;;;-69
2023/05/08 21:28:19;;;;;;;;;;;;;;;15.22;69.8623;102025.7;;;;-71
2023/05/08 21:33:20;;;;;;;;;;;;;;;15.17;70.00098;102017.3;;;;-69
2023/05/08 21:38:19;;;;;;;;;;;;;;;15.12;69.99414;102008.3;;;;-71
2023/05/08 21:42:10;;;;;;;7.9;4;;;;;;;;;;;;;-70
2023/05/08 21:43:20;;;;;;;;;;;;;;;15.1;70.54004;102000.8;;;;-70
2023/05/08 21:48:21;;;;;;;;;;;;;;;15.06;70.18555;101992;;;;-70
2023/05/08 21:53:22;;;;;;;;;;;;;;;15.04;70.6084;101978.7;;;;-70
2023/05/08 21:58:19;;;;;;;;;;;;;;;15.01;70.34668;101973.8;;;;-70
2023/05/08 22:03:20;;;;;;;;;;;;;;;14.97;70.21582;101952.6;;;;-70
2023/05/08 22:08:19;;;;;;;;;;;;;;;14.93;70.5459;101956.4;;;;-69
2023/05/08 22:12:12;;;;;;;9.9;4.2;;;;;;;;;;;;;-70
2023/05/08 22:13:19;;;;;;;;;;;;;;;14.87;70.68359;101944.3;;;;-70
2023/05/08 22:18:19;;;;;;;;;;;;;;;14.84;71.05859;101938.9;;;;-69
2023/05/08 22:23:22;;;;;;;;;;;;;;;14.8;70.60254;101935.5;;;;-69
2023/05/08 22:28:19;;;;;;;;;;;;;;;14.77;70.83398;101932.1;;;;-70
2023/05/08 22:33:22;;;;;;;;;;;;;;;14.73;70.53711;101924.1;;;;-69
2023/05/08 22:38:20;;;;;;;;;;;;;;;14.69;71.0332;101917.3;;;;-68
2023/05/08 22:42:13;;;;;;;8.6;4.3;;;;;;;;;;;;;-69
2023/05/08 22:43:19;;;;;;;;;;;;;;;14.68;70.90918;101914.8;;;;-70
2023/05/08 22:48:19;;;;;;;;;;;;;;;14.62;71.4043;101906.8;;;;-68
2023/05/08 22:53:20;;;;;;;;;;;;;;;14.6;71.18652;101887.6;;;;-70
2023/05/08 22:58:19;;;;;;;;;;;;;;;14.56;71.62891;101876.1;;;;-72
2023/05/08 23:03:19;;;;;;;;;;;;;;;14.52;71.55566;101863.9;;;;-69
2023/05/08 23:08:21;;;;;;;;;;;;;;;14.49;71.5498;101855.2;;;;-69
2023/05/08 23:12:17;;;;;;;13.3;5.6;;;;;;;;;;;;;-70
2023/05/08 23:13:19;;;;;;;;;;;;;;;14.46;71.89258;101853.6;;;;-69
2023/05/08 23:18:19;;;;;;;;;;;;;;;14.41;72.05273;101848.7;;;;-69
2023/05/08 23:23:22;;;;;;;;;;;;;;;14.38;71.80078;101840.4;;;;-68
2023/05/08 23:28:19;;;;;;;;;;;;;;;14.35;72.04199;101845.6;;;;-69
2023/05/08 23:33:20;;;;;;;;;;;;;;;14.32;72.10547;101847.4;;;;-69
2023/05/08 23:38:20;;;;;;;;;;;;;;;14.29;71.73145;101846.5;;;;-70
2023/05/08 23:42:17;;;;;;;14.2;6.5;;;;;;;;;;;;;-71
2023/05/08 23:43:19;;;;;;;;;;;;;;;14.29;72.16797;101840.6;;;;-69
2023/05/08 23:48:19;;;;;;;;;;;;;;;14.27;72.15234;101836.2;;;;-70
2023/05/08 23:53:19;;;;;;;;;;;;;;;14.24;72.5293;101839.3;;;;-70
2023/05/08 23:58:19;;;;;;;;;;;;;;;14.23;72.33594;101839.8;;;;-69
